Show Low, AZ (85901)

17:26 MST le 29 août 2014 (GMT -0700)
Torreon | Change Station
CLOSE
Current Station
Stations météorologiques personnelles
Location: Show Low, AZ
Altitude: 6391 ft
Stations météo à proximité

Alt. 6391 ft 34.25 °N, 110.09 °W | Updated 3 minutes ago

Clear
Ciel dégagé
79.7 ° F
Paraît 79 ° F
N
6.0
Vent Variable Vent de NNO
Gusts 9.0 mph

Aujourd'hui
Haut(e) -- | Bas -- ° F
--% Risque de précip.
Hier
Haut(e) -- | Bas -- ° F
Precip. -- pouce
5:51 AM 6:50 PM
Lune montante, 17% visible
Pression 30.19 pouce
Visibilité 10.0 Miles terrestres
Nuages Ciel dégagé
indice de chaleur 79 ° F
Point de rosée 38 ° F
Humidité 22%
Précipitations 0.00 pouce
Profondeur de la couche neigeuse Non disponible.
UV 1 sur 12
Pollen 6.30 sur 12
Qualité de l'air Non disponible.
Flu Activity Non disponible.
METAR KSOW 300015Z AUTO 01007KT 10SM CLR 25/01 A3019 RMK AO2

More Conditions Fewer Conditions

Pression 30.19 pouce
Visibilité 10.0 Miles terrestres
Nuages Ciel dégagé
indice de chaleur 79 ° F
Point de rosée 38 ° F
Humidité 22%
Précipitations 0.00 pouce
Profondeur de la couche neigeuse Non disponible.
UV 1 sur 12
Pollen 6.30 sur 12
Qualité de l'air Non disponible.
Flu Activity Non disponible.
METAR KSOW 300015Z AUTO 01007KT 10SM CLR 25/01 A3019 RMK AO2

More Conditions Fewer Conditions

10-Day Weather Forecast

Almanac

Astronomie

Aug. 29, 2014 Lever Coucher
Temps réel 05:51 MST 18:50 MST
Crépuscule civil 05:25 MST 19:15 MST
Crépuscule nautique 04:55 MST 19:46 MST
Crépuscule astronomique 04:23 MST 20:17 MST
Lune 09:32 MST (8/29) 21:02 MST (8/29)
Durée de lumière visible 13h 49m
Longueur du jour
12h 58m
Tomorrow will be 2m 1s shorter.
Lune montante, 17% of the Moon is Illuminated
Aujourd'hui
Lune montante
Sep 2
Premier quartier
Sep 8
Pleine lune
Sep 15
Dernier quartier
Sep 24
Nouveau

Extrêmes aujourd'hui

State Highs State Lows

Community

WunderPhotos

Upload Photos

1,748,384 Photos téléchargées !

Nearby

Épaisseur de neige

Station Depth Altitude
Workman Creek 0 in 6900 ft

Activité sismique

Ville Distance Mag. Time & Date
No recent earthquake activity has been reported nearby.
Minimum magnitude displayed is 2.5.

Températures des eaux côtières

Lieu Température
Aucun rapport de station

Stations météo à proximité